createdAt,value
2019-02-07T00:00:45.910Z,-1.04
2019-02-07T00:01:45.889Z,-1.01
2019-02-07T00:02:45.886Z,-0.95
2019-02-07T00:03:45.863Z,-0.93
2019-02-07T00:04:46.141Z,-0.92
2019-02-07T00:05:45.929Z,-0.99
2019-02-07T00:06:45.794Z,-0.98
2019-02-07T00:07:45.785Z,-0.92
2019-02-07T00:08:45.761Z,-0.93
2019-02-07T00:09:45.724Z,-0.92
2019-02-07T00:10:45.716Z,-0.99
2019-02-07T00:11:45.696Z,-0.96
2019-02-07T00:12:45.954Z,-0.98
2019-02-07T00:13:45.672Z,-1.04
2019-02-07T00:14:45.642Z,-1.04
2019-02-07T00:15:45.486Z,-1.01
2019-02-07T00:16:45.597Z,-1.13
2019-02-07T00:17:45.574Z,-1.1
2019-02-07T00:18:45.303Z,-1.1
2019-02-07T00:19:45.898Z,-1.11
2019-02-07T00:20:45.510Z,-1.22
2019-02-07T00:21:45.244Z,-1.24
2019-02-07T00:22:45.231Z,-1.22
2019-02-07T00:23:45.454Z,-1.04
2019-02-07T00:24:47.925Z,-1.17
2019-02-07T00:25:45.426Z,-1.16
2019-02-07T00:26:45.399Z,-1.16
2019-02-07T00:27:46.038Z,-1.06
2019-02-07T00:28:45.354Z,-1.03
2019-02-07T00:29:45.096Z,-0.99
2019-02-07T00:30:45.330Z,-1.04
2019-02-07T00:31:45.295Z,-1.06
2019-02-07T00:32:45.279Z,-0.99
2019-02-07T00:33:45.266Z,-1.09
2019-02-07T00:34:45.235Z,-1.09
2019-02-07T00:35:47.483Z,-1.01
2019-02-07T00:36:45.202Z,-1.01
2019-02-07T00:37:45.174Z,-1.01
2019-02-07T00:38:45.167Z,-0.98
2019-02-07T00:39:45.136Z,-0.99
2019-02-07T00:40:45.123Z,-0.89
2019-02-07T00:41:44.858Z,-0.95
2019-02-07T00:42:45.089Z,-0.91
2019-02-07T00:43:45.258Z,-0.87
2019-02-07T00:44:56.594Z,-0.84
2019-02-07T00:45:45.017Z,-0.85
2019-02-07T00:46:45.003Z,-0.85
2019-02-07T00:47:45.007Z,-0.77
2019-02-07T00:48:44.963Z,-0.82
2019-02-07T00:49:44.939Z,-0.79
2019-02-07T00:50:45.098Z,-0.85
2019-02-07T00:51:44.913Z,-0.8
2019-02-07T00:52:44.886Z,-0.74
2019-02-07T00:53:44.859Z,-0.73
2019-02-07T00:54:44.852Z,-0.7
2019-02-07T00:55:44.589Z,-0.64
2019-02-07T00:56:44.818Z,-0.64
2019-02-07T00:57:44.791Z,-0.7
2019-02-07T00:58:44.787Z,-0.72
2019-02-07T00:59:44.753Z,-0.66
2019-02-07T01:00:44.721Z,-0.69
2019-02-07T01:01:44.707Z,-0.67
2019-02-07T01:02:44.684Z,-0.74
2019-02-07T01:03:44.662Z,-0.85
2019-02-07T01:04:44.652Z,-0.89
2019-02-07T01:05:44.622Z,-0.79
2019-02-07T01:06:44.956Z,-0.79
2019-02-07T01:07:44.584Z,-0.69
2019-02-07T01:08:44.565Z,-0.85
2019-02-07T01:09:44.548Z,-0.82
2019-02-07T01:10:44.530Z,-0.89
2019-02-07T01:11:44.505Z,-0.87
2019-02-07T01:12:44.484Z,-0.92
2019-02-07T01:13:44.471Z,-0.95
2019-02-07T01:14:45.072Z,-0.96
2019-02-07T01:15:44.427Z,-0.89
2019-02-07T01:16:44.418Z,-0.96
2019-02-07T01:17:44.393Z,-0.82
2019-02-07T01:18:44.368Z,-0.84
2019-02-07T01:19:44.096Z,-0.87
2019-02-07T01:20:44.085Z,-0.84
2019-02-07T01:21:44.533Z,-0.79
2019-02-07T01:22:44.680Z,-0.79
2019-02-07T01:23:44.272Z,-0.87
2019-02-07T01:24:44.265Z,-0.84
2019-02-07T01:25:43.981Z,-0.92
2019-02-07T01:26:44.210Z,-0.92
2019-02-07T01:27:44.189Z,-0.99
2019-02-07T01:28:44.174Z,-1.03
2019-02-07T01:29:44.502Z,-1.06
2019-02-07T01:30:44.135Z,-1.04
2019-02-07T01:31:44.113Z,-0.95
2019-02-07T01:32:43.845Z,-0.98
2019-02-07T01:33:44.080Z,-0.98
2019-02-07T01:34:44.047Z,-0.91
2019-02-07T01:35:44.045Z,-0.95
2019-02-07T01:36:44.023Z,-0.96
2019-02-07T01:37:44.791Z,-1.03
2019-02-07T01:38:43.979Z,-0.95
2019-02-07T01:39:43.958Z,-0.96
2019-02-07T01:40:43.943Z,-0.98
2019-02-07T01:41:43.914Z,-0.92
2019-02-07T01:42:43.890Z,-0.89
2019-02-07T01:43:43.636Z,-1.01
2019-02-07T01:44:44.100Z,-0.96
2019-02-07T01:45:43.855Z,-0.95
2019-02-07T01:46:43.862Z,-0.93
2019-02-07T01:47:43.793Z,-0.95
2019-02-07T01:48:43.528Z,-0.95
2019-02-07T01:49:43.759Z,-0.89
2019-02-07T01:50:43.743Z,-0.87
2019-02-07T01:51:43.718Z,-0.82
2019-02-07T01:52:44.346Z,-0.85
2019-02-07T01:53:43.677Z,-0.95
2019-02-07T01:54:43.665Z,-0.95
2019-02-07T01:55:43.387Z,-0.99
2019-02-07T01:56:43.366Z,-0.87
2019-02-07T01:57:43.612Z,-0.98
2019-02-07T01:58:43.575Z,-0.96
2019-02-07T01:59:43.310Z,-1.03
2019-02-07T02:00:43.902Z,-1.03
2019-02-07T02:01:43.539Z,-1.06
2019-02-07T02:02:43.492Z,-1.09
2019-02-07T02:03:43.489Z,-1.06
2019-02-07T02:04:43.469Z,-1.07
2019-02-07T02:05:43.444Z,-1.07
2019-02-07T02:06:43.506Z,-1.04
2019-02-07T02:07:43.669Z,-0.98
2019-02-07T02:08:43.165Z,-0.92
2019-02-07T02:09:43.359Z,-0.89
2019-02-07T02:10:43.103Z,-0.84
2019-02-07T02:11:43.077Z,-0.8
2019-02-07T02:12:43.313Z,-0.79
2019-02-07T02:13:43.285Z,-0.77
2019-02-07T02:14:43.265Z,-0.84
2019-02-07T02:15:43.579Z,-0.73
2019-02-07T02:16:43.219Z,-0.79
2019-02-07T02:17:43.208Z,-0.74
2019-02-07T02:18:43.237Z,-0.87
2019-02-07T02:19:43.258Z,-0.77
2019-02-07T02:20:43.149Z,-0.74
2019-02-07T02:21:43.124Z,-0.72
2019-02-07T02:22:43.104Z,-0.66
2019-02-07T02:23:43.588Z,-0.66
2019-02-07T02:24:45.164Z,-0.62
2019-02-07T02:25:43.053Z,-0.64
2019-02-07T02:26:43.032Z,-0.58
2019-02-07T02:27:43.009Z,-0.59
2019-02-07T02:28:42.984Z,-0.46
2019-02-07T02:29:42.962Z,-0.36
2019-02-07T02:30:42.733Z,-0.41
2019-02-07T02:31:43.210Z,-0.38
2019-02-07T02:32:42.922Z,-0.38
2019-02-07T02:33:42.899Z,-0.38
2019-02-07T02:34:42.869Z,-0.33
2019-02-07T02:35:42.849Z,-0.36
2019-02-07T02:36:42.837Z,-0.31
2019-02-07T02:37:42.824Z,-0.33
2019-02-07T02:38:43.294Z,-0.33
2019-02-07T02:39:42.790Z,-0.31
2019-02-07T02:40:42.750Z,-0.34
2019-02-07T02:41:42.733Z,-0.22
2019-02-07T02:42:42.718Z,-0.25
2019-02-07T02:43:42.703Z,-0.28
2019-02-07T02:44:42.680Z,-0.23
2019-02-07T02:45:42.885Z,-0.25
2019-02-07T02:46:43.321Z,-0.2
2019-02-07T02:47:42.616Z,-0.16
2019-02-07T02:48:42.607Z,-0.13
2019-02-07T02:49:42.338Z,-0.13
2019-02-07T02:50:42.564Z,-0.13
2019-02-07T02:51:42.542Z,-0.05
2019-02-07T02:52:45.214Z,0.03
2019-02-07T02:53:42.630Z,-0.04
2019-02-07T02:54:42.477Z,0.05
2019-02-07T02:55:42.487Z,0.05
2019-02-07T02:56:42.435Z,0.05
2019-02-07T02:57:42.421Z,0.01
2019-02-07T02:58:42.402Z,0.01
2019-02-07T02:59:42.380Z,-0.01
2019-02-07T03:00:42.364Z,0.05
2019-02-07T03:01:42.470Z,0.02
2019-02-07T03:02:42.327Z,0.05
2019-02-07T03:03:42.309Z,0.01
2019-02-07T03:04:42.286Z,0.03
2019-02-07T03:05:42.274Z,0.06
2019-02-07T03:06:42.257Z,0.09
2019-02-07T03:07:42.230Z,0.13
2019-02-07T03:08:41.967Z,0.01
2019-02-07T03:09:42.476Z,0.08
2019-02-07T03:10:42.182Z,0.06
2019-02-07T03:11:42.170Z,0.09
2019-02-07T03:12:41.899Z,0.05
2019-02-07T03:13:42.126Z,0.17
2019-02-07T03:14:42.108Z,0.19
2019-02-07T03:15:53.884Z,0.13
2019-02-07T03:16:42.062Z,0.1
2019-02-07T03:17:42.674Z,0.09
2019-02-07T03:18:42.022Z,0.23
2019-02-07T03:19:42.002Z,0.2
2019-02-07T03:20:41.981Z,0.13
2019-02-07T03:21:41.986Z,0.14
2019-02-07T03:22:41.951Z,0.16
2019-02-07T03:23:41.923Z,0.21
2019-02-07T03:24:41.901Z,0.21
2019-02-07T03:25:42.221Z,0.2
2019-02-07T03:26:41.896Z,0.2
2019-02-07T03:27:41.916Z,0.24
2019-02-07T03:28:41.828Z,0.2
2019-02-07T03:29:41.803Z,0.21
2019-02-07T03:30:41.795Z,0.2
2019-02-07T03:31:41.790Z,0.17
2019-02-07T03:32:42.007Z,0.17
2019-02-07T03:33:41.732Z,0.34
2019-02-07T03:34:41.464Z,0.16
2019-02-07T03:35:41.705Z,0.21
2019-02-07T03:36:41.680Z,0.28
2019-02-07T03:37:41.421Z,0.26
2019-02-07T03:38:41.634Z,0.23
2019-02-07T03:39:41.615Z,0.28
2019-02-07T03:40:42.157Z,0.16
2019-02-07T03:41:41.575Z,0.23
2019-02-07T03:42:41.564Z,0.28
2019-02-07T03:43:41.549Z,0.19
2019-02-07T03:44:41.534Z,0.2
2019-02-07T03:45:41.506Z,0.19
2019-02-07T03:46:41.485Z,0.2
2019-02-07T03:47:41.469Z,0.19
2019-02-07T03:48:42.031Z,0.17
2019-02-07T03:49:41.421Z,0.19
2019-02-07T03:50:41.179Z,0.2
2019-02-07T03:51:41.398Z,0.19
2019-02-07T03:52:41.380Z,0.05
2019-02-07T03:53:41.352Z,0.08
2019-02-07T03:54:41.430Z,0.08
2019-02-07T03:55:41.331Z,0.06
2019-02-07T03:56:41.662Z,0.02
2019-02-07T03:57:41.288Z,0.05
2019-02-07T03:58:41.014Z,-0.04
2019-02-07T03:59:41.244Z,0.02
2019-02-07T04:00:41.221Z,0.02
2019-02-07T04:01:41.202Z,-0.02
2019-02-07T04:02:43.159Z,0.01
2019-02-07T04:03:41.408Z,0.02
2019-02-07T04:04:41.147Z,0.05
2019-02-07T04:05:41.133Z,0.06
2019-02-07T04:06:41.104Z,0.06
2019-02-07T04:07:41.085Z,0.08
2019-02-07T04:08:41.060Z,0.13
2019-02-07T04:09:41.051Z,0.09
2019-02-07T04:10:43.106Z,0.1
2019-02-07T04:11:41.441Z,0.13
2019-02-07T04:12:40.746Z,0.09
2019-02-07T04:13:40.971Z,0.02
2019-02-07T04:14:40.952Z,0.13
2019-02-07T04:15:40.938Z,0.01
2019-02-07T04:16:40.931Z,0.02
2019-02-07T04:17:40.896Z,0.02
2019-02-07T04:18:40.892Z,-0.02
2019-02-07T04:19:41.544Z,-0.04
2019-02-07T04:20:40.594Z,0.01
2019-02-07T04:21:40.815Z,-0.05
2019-02-07T04:22:40.799Z,0.01
2019-02-07T04:23:40.534Z,-0.07
2019-02-07T04:24:40.766Z,-0.09
2019-02-07T04:25:40.750Z,-0.15
2019-02-07T04:26:40.476Z,-0.13
2019-02-07T04:27:41.334Z,-0.15
2019-02-07T04:28:40.443Z,-0.2
2019-02-07T04:29:40.667Z,-0.22
2019-02-07T04:30:40.668Z,-0.22
2019-02-07T04:31:40.383Z,-0.36
2019-02-07T04:32:40.606Z,-0.34
2019-02-07T04:33:40.595Z,-0.36
2019-02-07T04:34:40.572Z,-0.36
2019-02-07T04:35:40.912Z,-0.41
2019-02-07T04:36:40.043Z,-0.34
2019-02-07T04:37:40.512Z,-0.37
2019-02-07T04:38:40.249Z,-0.4
2019-02-07T04:39:40.480Z,-0.38
2019-02-07T04:40:40.460Z,-0.48
2019-02-07T04:41:40.439Z,-0.52
2019-02-07T04:42:40.663Z,-0.52
2019-02-07T04:43:40.395Z,-0.61
2019-02-07T04:44:40.375Z,-0.58
2019-02-07T04:45:40.361Z,-0.59
2019-02-07T04:46:40.342Z,-0.66
2019-02-07T04:47:40.313Z,-0.66
2019-02-07T04:48:40.057Z,-0.7
2019-02-07T04:49:40.290Z,-0.72
2019-02-07T04:50:40.772Z,-0.69
2019-02-07T04:51:40.251Z,-0.69
2019-02-07T04:52:39.978Z,-0.74
2019-02-07T04:53:40.214Z,-0.84
2019-02-07T04:54:40.177Z,-0.74
2019-02-07T04:55:40.169Z,-0.77
2019-02-07T04:56:39.991Z,-0.8
2019-02-07T04:57:40.127Z,-0.79
2019-02-07T04:58:40.627Z,-0.79
2019-02-07T04:59:40.085Z,-0.91
2019-02-07T05:00:40.061Z,-0.77
2019-02-07T05:01:40.036Z,-0.76
2019-02-07T05:02:40.031Z,-0.79
2019-02-07T05:03:40.005Z,-0.79
2019-02-07T05:04:40.005Z,-0.79
2019-02-07T05:05:39.727Z,-0.73
2019-02-07T05:06:40.316Z,-0.77
2019-02-07T05:07:39.937Z,-0.73
2019-02-07T05:08:39.913Z,-0.84
2019-02-07T05:09:39.901Z,-0.84
2019-02-07T05:10:39.877Z,-0.85
2019-02-07T05:11:39.848Z,-0.84
2019-02-07T05:12:39.833Z,-0.85
2019-02-07T05:13:40.179Z,-0.76
2019-02-07T05:14:39.785Z,-0.82
2019-02-07T05:15:39.766Z,-0.82
2019-02-07T05:16:45.933Z,-0.84
2019-02-07T05:17:39.726Z,-0.8
2019-02-07T05:18:39.711Z,-0.77
2019-02-07T05:19:39.436Z,-0.82
2019-02-07T05:20:39.666Z,-0.84
2019-02-07T05:21:39.948Z,-0.89
2019-02-07T05:22:39.625Z,-0.87
2019-02-07T05:23:39.610Z,-0.89
2019-02-07T05:24:39.596Z,-1.03
2019-02-07T05:25:39.586Z,-0.93
2019-02-07T05:26:39.298Z,-0.96
2019-02-07T05:27:39.719Z,-0.92
2019-02-07T05:28:39.530Z,-0.98
2019-02-07T05:29:39.541Z,-0.95
2019-02-07T05:30:39.482Z,-1.07
2019-02-07T05:31:39.470Z,-1.09
2019-02-07T05:32:41.262Z,-1.16
2019-02-07T05:33:39.415Z,-1.09
2019-02-07T05:34:39.390Z,-1.13
2019-02-07T05:35:39.377Z,-1.07
2019-02-07T05:36:42.153Z,-1.06
2019-02-07T05:37:39.333Z,-1.16
2019-02-07T05:38:39.312Z,-1.13
2019-02-07T05:39:39.290Z,-1.21
2019-02-07T05:40:38.776Z,-1.22
2019-02-07T05:41:39.252Z,-1.24
2019-02-07T05:42:39.259Z,-1.27
2019-02-07T05:43:39.211Z,-1.22
2019-02-07T05:44:39.546Z,-1.17
2019-02-07T05:45:39.172Z,-1.22
2019-02-07T05:46:50.440Z,-1.19
2019-02-07T05:47:39.144Z,-1.28
2019-02-07T05:48:39.114Z,-1.24
2019-02-07T05:49:39.105Z,-1.19
2019-02-07T05:50:39.081Z,-1.21
2019-02-07T05:51:39.052Z,-1.17
2019-02-07T05:52:39.103Z,-1.21
2019-02-07T05:53:39.023Z,-1.22
2019-02-07T05:54:38.893Z,-1.31
2019-02-07T05:55:38.972Z,-1.25
2019-02-07T05:56:39.303Z,-1.3
2019-02-07T05:57:38.957Z,-1.19
2019-02-07T05:58:38.948Z,-1.27
2019-02-07T05:59:39.139Z,-1.24
2019-02-07T06:00:38.872Z,-1.22
2019-02-07T06:01:38.855Z,-1.24
2019-02-07T06:02:38.592Z,-1.25
2019-02-07T06:03:38.815Z,-1.21
2019-02-07T06:04:38.546Z,-1.19
2019-02-07T06:05:38.783Z,-1.27
2019-02-07T06:06:38.761Z,-1.27
2019-02-07T06:07:39.350Z,-1.24
2019-02-07T06:08:38.704Z,-1.27
2019-02-07T06:09:38.689Z,-1.22
2019-02-07T06:10:38.423Z,-1.17
2019-02-07T06:11:38.406Z,-1.22
2019-02-07T06:12:38.634Z,-1.22
2019-02-07T06:13:38.619Z,-1.24
2019-02-07T06:14:38.595Z,-1.21
2019-02-07T06:15:38.969Z,-1.27
2019-02-07T06:16:38.561Z,-1.24
2019-02-07T06:17:38.279Z,-1.24
2019-02-07T06:18:38.522Z,-1.27
2019-02-07T06:19:38.510Z,-1.21
2019-02-07T06:20:38.473Z,-1.19
2019-02-07T06:21:38.445Z,-1.1
2019-02-07T06:22:38.553Z,-1.14
2019-02-07T06:23:38.409Z,-1.13
2019-02-07T06:24:38.391Z,-1.11
2019-02-07T06:25:38.410Z,-1.06
2019-02-07T06:26:38.362Z,-1.03
2019-02-07T06:27:38.335Z,-1.04
2019-02-07T06:28:38.313Z,-0.98
2019-02-07T06:29:38.310Z,-0.98
2019-02-07T06:30:38.765Z,-0.96
2019-02-07T06:31:38.263Z,-0.98
2019-02-07T06:32:38.235Z,-0.98
2019-02-07T06:33:38.238Z,-0.93
2019-02-07T06:34:38.200Z,-0.96
2019-02-07T06:35:38.182Z,-0.93
2019-02-07T06:36:38.166Z,-1.03
2019-02-07T06:37:38.138Z,-0.85
2019-02-07T06:38:38.622Z,-0.82
2019-02-07T06:39:37.848Z,-0.89
2019-02-07T06:40:38.080Z,-0.85
2019-02-07T06:41:38.057Z,-0.85
2019-02-07T06:42:38.034Z,-0.87
2019-02-07T06:43:38.021Z,-0.84
2019-02-07T06:44:37.744Z,-0.84
2019-02-07T06:45:37.984Z,-0.79
2019-02-07T06:46:38.272Z,-0.79
2019-02-07T06:47:37.688Z,-0.89
2019-02-07T06:48:37.667Z,-0.79
2019-02-07T06:49:37.900Z,-0.74
2019-02-07T06:50:37.881Z,-0.79
2019-02-07T06:51:37.866Z,-0.67
2019-02-07T06:52:37.838Z,-0.69
2019-02-07T06:53:38.059Z,-0.64
2019-02-07T06:54:37.549Z,-0.67
2019-02-07T06:55:37.783Z,-0.67
2019-02-07T06:56:37.755Z,-0.69
2019-02-07T06:57:37.504Z,-0.55
2019-02-07T06:58:37.719Z,-0.55
2019-02-07T06:59:37.708Z,-0.54
2019-02-07T07:00:37.675Z,-0.49
2019-02-07T07:01:37.916Z,-0.49
2019-02-07T07:02:37.392Z,-0.52
2019-02-07T07:03:37.362Z,-0.49
2019-02-07T07:04:37.597Z,-0.49
2019-02-07T07:05:37.585Z,-0.54
2019-02-07T07:06:37.617Z,-0.51
2019-02-07T07:07:37.547Z,-0.38
2019-02-07T07:08:37.522Z,-0.51
2019-02-07T07:09:37.546Z,-0.48
2019-02-07T07:10:37.478Z,-0.48
2019-02-07T07:11:37.466Z,-0.49
2019-02-07T07:12:37.448Z,-0.43
2019-02-07T07:13:37.424Z,-0.37
2019-02-07T07:14:37.414Z,-0.4
2019-02-07T07:15:40.050Z,-0.43
2019-02-07T07:16:37.114Z,-0.37
2019-02-07T07:17:37.944Z,-0.45
2019-02-07T07:18:37.074Z,-0.38
2019-02-07T07:19:37.068Z,-0.37
2019-02-07T07:20:37.294Z,-0.34
2019-02-07T07:21:37.114Z,-0.34
2019-02-07T07:22:37.391Z,-0.36
2019-02-07T07:23:37.228Z,-0.27
2019-02-07T07:24:37.206Z,-0.31
2019-02-07T07:25:37.715Z,-0.25
2019-02-07T07:26:37.165Z,-0.27
2019-02-07T07:27:37.166Z,-0.25
2019-02-07T07:28:37.131Z,-0.22
2019-02-07T07:29:37.129Z,-0.19
2019-02-07T07:30:37.095Z,-0.13
2019-02-07T07:31:37.071Z,-0.15
2019-02-07T07:32:36.804Z,-0.15
2019-02-07T07:33:37.779Z,-0.13
2019-02-07T07:34:37.028Z,-0.15
2019-02-07T07:35:37.006Z,-0.1
2019-02-07T07:36:36.973Z,-0.07
2019-02-07T07:37:39.036Z,-0.15
2019-02-07T07:38:36.939Z,-0.09
2019-02-07T07:39:36.920Z,-0.07
2019-02-07T07:40:36.904Z,0.02
2019-02-07T07:41:36.857Z,0.05
2019-02-07T07:42:36.856Z,0.09
2019-02-07T07:43:36.838Z,-0.02
2019-02-07T07:44:36.827Z,0.09
2019-02-07T07:45:36.801Z,0.08
2019-02-07T07:46:36.780Z,0.16
2019-02-07T07:47:40.807Z,0.14
2019-02-07T07:48:36.936Z,0.17
2019-02-07T07:49:37.005Z,0.14
2019-02-07T07:50:36.702Z,0.16
2019-02-07T07:51:36.686Z,0.19
2019-02-07T07:52:36.662Z,0.2
2019-02-07T07:53:36.663Z,0.24
2019-02-07T07:54:36.376Z,0.27
2019-02-07T07:55:36.363Z,0.24
2019-02-07T07:56:36.902Z,0.19
2019-02-07T07:57:36.568Z,0.27
2019-02-07T07:58:36.303Z,0.34
2019-02-07T07:59:36.532Z,0.21
2019-02-07T08:00:36.266Z,0.31
2019-02-07T08:01:36.509Z,0.24
2019-02-07T08:02:36.486Z,0.37
2019-02-07T08:03:36.453Z,0.42
2019-02-07T08:04:36.775Z,0.35
2019-02-07T08:05:36.419Z,0.35
2019-02-07T08:06:36.412Z,0.48
2019-02-07T08:07:36.131Z,0.57
2019-02-07T08:08:36.367Z,0.52
2019-02-07T08:09:36.096Z,0.53
2019-02-07T08:10:36.324Z,0.52
2019-02-07T08:11:36.308Z,0.63
2019-02-07T08:12:36.574Z,0.63
2019-02-07T08:13:36.276Z,0.58
2019-02-07T08:14:36.250Z,0.75
2019-02-07T08:15:36.229Z,0.69
2019-02-07T08:16:35.988Z,0.81
2019-02-07T08:17:46.800Z,0.84
2019-02-07T08:18:35.932Z,0.9
2019-02-07T08:19:36.445Z,0.94
2019-02-07T08:20:38.965Z,0.9
2019-02-07T08:21:36.125Z,1
2019-02-07T08:22:36.092Z,1.03
2019-02-07T08:23:36.088Z,1.1
2019-02-07T08:24:36.067Z,1.11
2019-02-07T08:25:36.051Z,1.14
2019-02-07T08:26:36.023Z,1.18
2019-02-07T08:27:36.233Z,1.22
2019-02-07T08:28:35.990Z,1.15
2019-02-07T08:29:35.974Z,1.33
2019-02-07T08:30:41.475Z,1.36
2019-02-07T08:31:35.685Z,1.35
2019-02-07T08:32:35.908Z,1.54
2019-02-07T08:33:35.904Z,1.56
2019-02-07T08:34:35.885Z,1.5
2019-02-07T08:35:36.442Z,1.53
2019-02-07T08:36:35.849Z,1.6
2019-02-07T08:37:35.835Z,1.65
2019-02-07T08:38:35.809Z,1.68
2019-02-07T08:39:35.785Z,1.75
2019-02-07T08:40:35.777Z,1.71
2019-02-07T08:41:35.501Z,1.74
2019-02-07T08:42:35.490Z,1.69
2019-02-07T08:43:36.017Z,1.6
2019-02-07T08:44:35.714Z,1.6
2019-02-07T08:45:35.769Z,1.75
2019-02-07T08:46:35.680Z,1.68
2019-02-07T08:47:35.659Z,1.71
2019-02-07T08:48:35.729Z,1.79
2019-02-07T08:49:35.601Z,1.74
2019-02-07T08:50:35.757Z,1.76
2019-02-07T08:51:36.033Z,1.86
2019-02-07T08:52:35.548Z,1.84
2019-02-07T08:53:35.311Z,1.87
2019-02-07T08:54:35.514Z,1.87
2019-02-07T08:55:37.482Z,1.68
2019-02-07T08:56:34.988Z,1.72
2019-02-07T08:57:35.466Z,1.71
2019-02-07T08:58:35.675Z,1.74
2019-02-07T08:59:34.930Z,1.58
2019-02-07T09:00:35.407Z,1.64
2019-02-07T09:01:35.386Z,1.71
2019-02-07T09:02:35.374Z,1.76
2019-02-07T09:03:35.372Z,1.72
2019-02-07T09:04:35.083Z,1.66
2019-02-07T09:05:35.319Z,1.54
2019-02-07T09:06:35.760Z,1.58
2019-02-07T09:07:37.028Z,1.64
2019-02-07T09:08:35.260Z,1.61
2019-02-07T09:09:35.351Z,1.57
2019-02-07T09:10:35.228Z,1.57
2019-02-07T09:11:34.967Z,1.57
2019-02-07T09:12:34.951Z,1.74
2019-02-07T09:13:35.176Z,1.71
2019-02-07T09:14:35.625Z,1.82
2019-02-07T09:15:35.143Z,1.84
2019-02-07T09:16:35.129Z,1.93
2019-02-07T09:17:35.104Z,2.02
2019-02-07T09:18:35.084Z,1.86
2019-02-07T09:19:35.066Z,1.82
2019-02-07T09:20:34.563Z,1.9
2019-02-07T09:21:35.033Z,1.87
2019-02-07T09:22:35.608Z,1.82
2019-02-07T09:23:35.000Z,1.9
2019-02-07T09:24:34.981Z,1.74
2019-02-07T09:25:39.186Z,1.75
2019-02-07T09:26:34.954Z,1.72
2019-02-07T09:27:34.681Z,1.86
2019-02-07T09:28:34.909Z,1.72
2019-02-07T09:29:34.896Z,1.58
2019-02-07T09:30:35.111Z,1.64
2019-02-07T09:31:34.861Z,1.53
2019-02-07T09:32:34.839Z,1.57
2019-02-07T09:33:34.822Z,1.47
2019-02-07T09:34:34.806Z,1.57
2019-02-07T09:35:34.788Z,1.51
2019-02-07T09:36:34.762Z,1.44
2019-02-07T09:37:34.964Z,1.48
2019-02-07T09:38:34.756Z,1.48
2019-02-07T09:39:34.725Z,1.38
2019-02-07T09:40:34.697Z,1.46
2019-02-07T09:41:34.673Z,1.48
2019-02-07T09:42:34.427Z,1.54
2019-02-07T09:43:34.647Z,1.5
2019-02-07T09:44:34.632Z,1.5
2019-02-07T09:45:35.133Z,1.6
2019-02-07T09:46:34.593Z,1.74
2019-02-07T09:47:34.333Z,1.74
2019-02-07T09:48:34.319Z,1.84
2019-02-07T09:49:34.547Z,1.83
2019-02-07T09:50:34.519Z,1.92
2019-02-07T09:51:34.574Z,1.94
2019-02-07T09:52:34.494Z,1.97
2019-02-07T09:53:35.067Z,2.12
2019-02-07T09:54:34.459Z,2.12
2019-02-07T09:55:34.441Z,2.13
2019-02-07T09:56:34.425Z,2.18
2019-02-07T09:57:34.394Z,2.29
2019-02-07T09:58:34.378Z,2.36
2019-02-07T09:59:34.514Z,2.36
2019-02-07T10:00:34.594Z,2.36
2019-02-07T10:01:34.338Z,2.42
2019-02-07T10:02:34.076Z,2.36
2019-02-07T10:03:34.047Z,2.58
2019-02-07T10:04:34.277Z,2.65
2019-02-07T10:05:34.004Z,2.77
2019-02-07T10:06:33.994Z,2.85
2019-02-07T10:07:34.254Z,2.84
2019-02-07T10:08:34.437Z,2.8
2019-02-07T10:09:34.197Z,2.95
2019-02-07T10:10:34.178Z,3.06
2019-02-07T10:11:34.151Z,3.14
2019-02-07T10:12:34.237Z,3.17
2019-02-07T10:13:34.123Z,3.13
2019-02-07T10:14:34.105Z,3.24
2019-02-07T10:15:34.085Z,3.24
2019-02-07T10:16:34.517Z,3.2
2019-02-07T10:17:34.060Z,3.19
2019-02-07T10:18:38.042Z,3.34
2019-02-07T10:19:34.021Z,3.42
2019-02-07T10:20:34.003Z,3.3
2019-02-07T10:21:33.744Z,3.24
2019-02-07T10:22:33.973Z,3.37
2019-02-07T10:23:33.963Z,3.34
2019-02-07T10:24:34.304Z,3.3
2019-02-07T10:25:33.674Z,3.42
2019-02-07T10:26:33.660Z,3.37
2019-02-07T10:27:33.948Z,3.24
2019-02-07T10:28:33.873Z,3.2
2019-02-07T10:29:33.853Z,3.19
2019-02-07T10:30:33.838Z,3.2
2019-02-07T10:31:33.802Z,3.27
2019-02-07T10:32:33.807Z,3.23
2019-02-07T10:33:33.786Z,3.21
2019-02-07T10:34:33.538Z,3.23
2019-02-07T10:35:33.760Z,3.29
2019-02-07T10:36:33.742Z,3.26
2019-02-07T10:37:33.471Z,3.34
2019-02-07T10:38:33.703Z,3.34
2019-02-07T10:39:34.299Z,3.43
2019-02-07T10:40:33.676Z,3.49
2019-02-07T10:41:34.462Z,3.48
2019-02-07T10:42:33.651Z,3.57
2019-02-07T10:43:33.121Z,3.64
2019-02-07T10:44:33.609Z,3.72
2019-02-07T10:45:33.585Z,3.74
2019-02-07T10:46:33.597Z,3.76
2019-02-07T10:47:35.841Z,3.86
2019-02-07T10:48:43.936Z,3.82
2019-02-07T10:49:33.358Z,3.75
2019-02-07T10:50:33.517Z,3.72
2019-02-07T10:51:33.490Z,3.76
2019-02-07T10:52:33.506Z,3.79
2019-02-07T10:53:33.463Z,3.78
2019-02-07T10:54:33.453Z,3.72
2019-02-07T10:55:33.778Z,3.82
2019-02-07T10:56:33.423Z,3.89
2019-02-07T10:57:33.399Z,3.86
2019-02-07T10:58:33.376Z,3.97
2019-02-07T10:59:33.113Z,4.04
2019-02-07T11:00:33.349Z,4.14
2019-02-07T11:01:33.332Z,4.21
2019-02-07T11:02:33.546Z,4.14
2019-02-07T11:03:33.301Z,4.03
2019-02-07T11:04:33.049Z,3.99
2019-02-07T11:05:33.267Z,3.92
2019-02-07T11:06:33.259Z,3.92
2019-02-07T11:07:33.234Z,4.15
2019-02-07T11:08:33.235Z,4.12
2019-02-07T11:09:33.202Z,4.21
2019-02-07T11:10:33.546Z,4.32
2019-02-07T11:11:33.189Z,4.42
2019-02-07T11:12:33.163Z,4.39
2019-02-07T11:13:33.133Z,4.53
2019-02-07T11:14:33.124Z,4.53
2019-02-07T11:15:33.115Z,4.56
2019-02-07T11:16:33.095Z,4.5
2019-02-07T11:17:33.140Z,4.53
2019-02-07T11:18:33.637Z,4.53
2019-02-07T11:19:33.056Z,4.58
2019-02-07T11:20:33.034Z,4.6
2019-02-07T11:21:32.781Z,4.5
2019-02-07T11:22:33.011Z,4.58
2019-02-07T11:23:32.985Z,4.58
2019-02-07T11:24:32.980Z,4.54
2019-02-07T11:25:32.958Z,4.46
2019-02-07T11:26:33.579Z,4.46
2019-02-07T11:27:32.935Z,4.47
2019-02-07T11:28:32.903Z,4.53
2019-02-07T11:29:32.899Z,4.47
2019-02-07T11:30:32.631Z,4.36
2019-02-07T11:31:32.633Z,4.36
2019-02-07T11:32:32.863Z,4.22
2019-02-07T11:33:32.839Z,4.22
2019-02-07T11:34:33.497Z,4.17
2019-02-07T11:35:32.801Z,4.21
2019-02-07T11:36:32.530Z,3.96
2019-02-07T11:37:32.782Z,3.9
2019-02-07T11:38:32.763Z,3.85
2019-02-07T11:39:34.661Z,3.92
2019-02-07T11:40:32.791Z,3.93
2019-02-07T11:41:32.468Z,3.96
2019-02-07T11:42:32.846Z,4.1
2019-02-07T11:43:32.682Z,4.11
2019-02-07T11:44:32.662Z,4.14
2019-02-07T11:45:32.660Z,4.15
2019-02-07T11:46:39.727Z,4.15
2019-02-07T11:47:32.369Z,4.17
2019-02-07T11:48:32.606Z,4.18
2019-02-07T11:49:32.623Z,4.2
2019-02-07T11:50:32.570Z,4.1
2019-02-07T11:51:32.553Z,3.97
2019-02-07T11:52:32.534Z,3.92
2019-02-07T11:53:32.525Z,3.84
2019-02-07T11:54:32.502Z,3.78
2019-02-07T11:55:32.500Z,3.72
2019-02-07T11:56:32.493Z,3.71
2019-02-07T11:57:32.763Z,3.61
2019-02-07T11:58:32.452Z,3.6
2019-02-07T11:59:32.439Z,3.61
2019-02-07T12:00:32.172Z,3.48
2019-02-07T12:01:32.399Z,3.48
2019-02-07T12:02:32.380Z,3.43
2019-02-07T12:03:32.359Z,3.43
2019-02-07T12:04:32.354Z,3.39
2019-02-07T12:05:32.606Z,3.3
2019-02-07T12:06:32.235Z,3.29
2019-02-07T12:07:32.298Z,3.21
2019-02-07T12:08:32.284Z,3.2
2019-02-07T12:09:32.259Z,3.27
2019-02-07T12:10:32.248Z,3.21
2019-02-07T12:11:32.242Z,3.21
2019-02-07T12:12:32.216Z,3.17
2019-02-07T12:13:32.628Z,3.13
2019-02-07T12:14:32.186Z,3.09
2019-02-07T12:15:32.168Z,3.06
2019-02-07T12:16:32.158Z,3.06
2019-02-07T12:17:32.140Z,2.96
2019-02-07T12:18:32.120Z,2.93
2019-02-07T12:19:31.855Z,2.99
2019-02-07T12:20:32.078Z,2.98
2019-02-07T12:21:32.783Z,2.9
2019-02-07T12:22:32.055Z,3.01
2019-02-07T12:23:32.029Z,2.95
2019-02-07T12:24:32.023Z,2.99
2019-02-07T12:25:32.011Z,2.93
2019-02-07T12:26:31.996Z,2.96
2019-02-07T12:27:31.972Z,2.93
2019-02-07T12:28:31.975Z,2.9
2019-02-07T12:29:31.937Z,2.98
2019-02-07T12:30:31.919Z,2.93
2019-02-07T12:31:31.904Z,2.98
2019-02-07T12:32:31.896Z,2.96
2019-02-07T12:33:31.883Z,2.88
2019-02-07T12:34:31.860Z,3.01
2019-02-07T12:35:31.592Z,2.98
2019-02-07T12:36:32.075Z,3.08
2019-02-07T12:37:31.802Z,2.99
2019-02-07T12:38:31.784Z,3.02
2019-02-07T12:39:31.526Z,3.08
2019-02-07T12:40:31.503Z,3.03
2019-02-07T12:41:31.738Z,3.17
2019-02-07T12:42:31.723Z,3.16
2019-02-07T12:43:31.698Z,3.21
2019-02-07T12:44:32.662Z,3.3
2019-02-07T12:45:31.418Z,3.42
2019-02-07T12:46:31.803Z,3.48
2019-02-07T12:47:31.639Z,3.45
2019-02-07T12:48:31.619Z,3.42
2019-02-07T12:49:35.934Z,3.46
2019-02-07T12:50:31.596Z,3.46
2019-02-07T12:51:31.570Z,3.56
2019-02-07T12:52:32.215Z,3.49
2019-02-07T12:53:31.539Z,3.53
2019-02-07T12:54:31.517Z,3.54
2019-02-07T12:55:31.475Z,3.57
2019-02-07T12:56:31.490Z,3.51
2019-02-07T12:57:31.474Z,3.51
2019-02-07T12:58:31.478Z,3.58
2019-02-07T12:59:31.456Z,3.53
2019-02-07T13:00:31.729Z,3.48
2019-02-07T13:01:31.406Z,3.51
2019-02-07T13:02:31.393Z,3.49
2019-02-07T13:03:31.127Z,3.56
2019-02-07T13:04:31.356Z,3.4
2019-02-07T13:05:31.485Z,3.49
2019-02-07T13:06:31.081Z,3.51
2019-02-07T13:07:31.317Z,3.45